Time;durP1;ratioP1;P1;durP2;ratioP2;P2;SDS_P1;SDS_P2;PMS_P1;PMS_P2;Temp;Humidity;BMP_temperature;BMP_pressure;BME280_temperature;BME280_humidity;BME280_pressure;Samples;Min_cycle;Max_cycle;Signal;HPM_P1;HPM_P2
2021/10/18 05:08:37;;;;;;;17.85;10.85;;;;;;;7.44;79.88;100841.22;5065704;27;106361;-72
2021/10/18 05:11:02;;;;;;;22.27;11.75;;;;;;;7.49;79.85;100837.34;5065933;27;105889;-75
2021/10/18 05:13:27;;;;;;;18.30;12.10;;;;;;;7.53;80.33;100844.06;5065160;27;106157;-76
2021/10/18 05:15:53;;;;;;;18.17;13.52;;;;;;;7.58;80.10;100839.19;5064875;27;106588;-70
2021/10/18 05:18:22;;;;;;;19.27;12.45;;;;;;;7.65;80.95;100853.59;5065142;27;106027;-69
2021/10/18 05:20:48;;;;;;;22.90;13.45;;;;;;;7.74;80.82;100852.78;5065237;27;105859;-68
2021/10/18 05:23:14;;;;;;;19.45;13.40;;;;;;;7.81;80.87;100858.38;5065505;27;105912;-67
2021/10/18 05:25:39;;;;;;;19.23;11.50;;;;;;;7.87;80.87;100863.13;5065184;27;105923;-68
2021/10/18 05:28:05;;;;;;;17.42;11.55;;;;;;;7.95;81.17;100865.09;5065103;27;105900;-68
2021/10/18 05:30:31;;;;;;;16.85;12.15;;;;;;;8.01;80.95;100867.22;5065839;27;105812;-71
2021/10/18 05:32:57;;;;;;;19.38;12.65;;;;;;;8.05;80.73;100876.59;5064980;27;105661;-79
2021/10/18 05:35:24;;;;;;;16.73;11.27;;;;;;;8.10;80.81;100879.66;5065001;27;105863;-67
2021/10/18 05:37:49;;;;;;;18.33;11.48;;;;;;;8.11;80.87;100881.34;5064857;27;106013;-77
2021/10/18 05:40:17;;;;;;;20.80;11.93;;;;;;;8.14;81.51;100881.06;5065763;27;105880;-74
2021/10/18 05:42:42;;;;;;;18.15;11.48;;;;;;;8.19;80.69;100893.06;5064851;27;106207;-67
2021/10/18 05:45:09;;;;;;;18.60;12.73;;;;;;;8.22;81.24;100892.81;5064816;27;107341;-79
2021/10/18 05:47:34;;;;;;;18.30;12.45;;;;;;;8.25;81.44;100897.84;5064594;27;105769;-80
2021/10/18 05:50:00;;;;;;;19.55;12.63;;;;;;;8.27;80.82;100904.69;5065112;27;105827;-67
2021/10/18 05:52:30;;;;;;;20.58;12.55;;;;;;;8.30;80.69;100912.38;5065032;27;105843;-66
2021/10/18 05:54:55;;;;;;;17.07;12.23;;;;;;;8.32;80.94;100912.25;5064597;27;105973;-76
2021/10/18 05:57:21;;;;;;;19.05;11.55;;;;;;;8.36;80.89;100918.13;5064050;27;106172;-66
2021/10/18 05:59:47;;;;;;;19.23;11.98;;;;;;;8.37;81.14;100912.66;5065056;27;105904;-73
2021/10/18 06:02:12;;;;;;;17.20;12.07;;;;;;;8.39;80.55;100921.34;5064191;27;106002;-68
2021/10/18 06:04:43;;;;;;;16.50;11.10;;;;;;;8.43;81.09;100922.75;5063660;27;106099;-70
2021/10/18 06:07:08;;;;;;;19.52;11.02;;;;;;;8.44;80.55;100920.94;5063569;27;107105;-67
2021/10/18 06:09:33;;;;;;;20.52;12.52;;;;;;;8.45;80.66;100928.78;5064468;27;106140;-67
2021/10/18 06:11:59;;;;;;;18.90;11.73;;;;;;;8.48;80.98;100937.47;5063889;27;106416;-65
2021/10/18 06:14:24;;;;;;;17.52;11.95;;;;;;;8.49;80.93;100926.69;5064064;27;106115;-66
2021/10/18 06:16:49;;;;;;;17.80;11.48;;;;;;;8.50;81.14;100924.88;5063986;27;106073;-66
2021/10/18 06:19:15;;;;;;;15.38;11.48;;;;;;;8.54;81.07;100928.94;5054885;27;106203;-67
2021/10/18 06:21:40;;;;;;;17.35;11.05;;;;;;;8.56;80.75;100932.28;5050519;27;106384;-67
2021/10/18 06:24:05;;;;;;;19.27;13.23;;;;;;;8.60;80.62;100925.72;5050166;27;106385;-65
2021/10/18 06:26:31;;;;;;;18.70;11.32;;;;;;;8.63;80.58;100944.88;5050313;27;105984;-75
2021/10/18 06:28:56;;;;;;;15.77;11.18;;;;;;;8.61;80.70;100944.19;5051267;27;106080;-69
2021/10/18 06:31:22;;;;;;;18.35;9.93;;;;;;;8.60;80.60;100939.84;5050940;27;106228;-66
2021/10/18 06:33:47;;;;;;;17.23;10.02;;;;;;;8.65;80.93;100944.72;5049046;27;106390;-71
2021/10/18 06:36:12;;;;;;;16.80;11.00;;;;;;;8.69;80.55;100948.78;5047960;27;106359;-67
2021/10/18 06:38:38;;;;;;;17.90;11.15;;;;;;;8.70;80.38;100952.28;5049076;27;106430;-66
2021/10/18 06:41:03;;;;;;;15.05;10.98;;;;;;;8.73;80.37;100955.47;5048287;27;105980;-69
2021/10/18 06:43:28;;;;;;;14.38;9.73;;;;;;;8.76;80.85;100965.00;5047781;27;106534;-66
2021/10/18 06:45:54;;;;;;;17.23;10.55;;;;;;;8.76;80.16;100957.88;5049098;27;105876;-66
2021/10/18 06:48:19;;;;;;;17.73;11.18;;;;;;;8.78;80.29;100961.22;5048595;27;106418;-71
2021/10/18 06:50:46;;;;;;;16.75;11.15;;;;;;;8.83;80.39;100965.28;5047974;27;106206;-65
2021/10/18 06:53:20;;;;;;;16.10;11.70;;;;;;;8.85;80.34;100973.97;5047265;27;105965;-66
2021/10/18 06:55:46;;;;;;;15.93;10.25;;;;;;;8.86;80.54;100973.81;5047835;27;106078;-65
2021/10/18 06:58:12;;;;;;;16.55;10.55;;;;;;;8.88;80.17;100977.16;5048144;27;106280;-68
2021/10/18 07:00:38;;;;;;;19.10;11.40;;;;;;;8.89;80.13;100986.00;5049932;27;106183;-64
2021/10/18 07:03:04;;;;;;;16.15;10.75;;;;;;;8.88;80.04;100984.31;5047865;27;106344;-65
2021/10/18 07:05:30;;;;;;;16.52;9.93;;;;;;;8.90;80.52;100988.50;5049160;27;107154;-64
2021/10/18 07:07:55;;;;;;;16.35;11.05;;;;;;;8.92;80.21;100988.38;5050975;27;106156;-64
2021/10/18 07:10:21;;;;;;;18.08;10.13;;;;;;;8.91;80.08;100989.34;5050108;27;106164;-74
2021/10/18 07:12:46;;;;;;;16.83;11.02;;;;;;;8.92;80.45;100997.16;5048265;27;106406;-67
2021/10/18 07:15:11;;;;;;;17.35;11.43;;;;;;;8.97;80.04;101004.72;5049797;27;105914;-67
2021/10/18 07:17:37;;;;;;;22.58;11.13;;;;;;;9.04;80.00;101008.50;5050456;27;105974;-64
2021/10/18 07:20:04;;;;;;;15.90;10.40;;;;;;;9.10;80.15;100997.31;5049818;27;106017;-64
2021/10/18 07:22:31;;;;;;;16.02;9.93;;;;;;;9.16;80.03;101003.88;5049315;27;109169;-63
2021/10/18 07:24:57;;;;;;;13.80;10.32;;;;;;;9.20;80.20;100997.31;5049129;27;106351;-65
2021/10/18 07:27:26;;;;;;;17.17;11.27;;;;;;;9.25;80.14;100992.41;5050034;27;106034;-66
2021/10/18 07:29:52;;;;;;;18.88;10.25;;;;;;;9.31;79.87;101001.66;5048790;27;106605;-70
2021/10/18 07:32:17;;;;;;;18.15;10.73;;;;;;;9.37;79.86;100998.41;5048756;27;107225;-62
2021/10/18 07:34:43;;;;;;;16.00;10.20;;;;;;;9.40;79.65;100995.44;5047472;27;106134;-66
2021/10/18 07:37:09;;;;;;;14.20;9.65;;;;;;;9.45;79.49;100998.53;5049994;27;105982;-67
2021/10/18 07:39:35;;;;;;;15.15;10.60;;;;;;;9.51;79.44;101001.59;5050166;27;106223;-69
2021/10/18 07:42:02;;;;;;;16.75;10.13;;;;;;;9.51;79.21;100993.63;5048794;27;105752;-67
2021/10/18 07:44:28;;;;;;;14.15;8.82;;;;;;;9.53;79.07;101004.94;5048706;27;105993;-66
2021/10/18 07:46:55;;;;;;;12.05;8.30;;;;;;;9.54;78.78;101006.63;5049867;27;105980;-67
2021/10/18 07:49:28;;;;;;;16.98;9.25;;;;;;;9.54;78.99;101006.63;5049470;27;106258;-65
2021/10/18 07:51:55;;;;;;;15.48;7.93;;;;;;;9.56;79.12;101012.66;5049273;27;106218;-63
2021/10/18 07:54:23;;;;;;;13.52;8.95;;;;;;;9.61;79.02;101013.06;5049343;27;106737;-68
2021/10/18 07:56:48;;;;;;;15.32;8.57;;;;;;;9.65;78.82;101019.78;5050354;27;106063;-65
2021/10/18 07:59:14;;;;;;;14.95;8.13;;;;;;;9.67;78.72;101015.13;5049526;27;106275;-65
2021/10/18 08:01:39;;;;;;;13.73;7.90;;;;;;;9.72;78.75;101026.19;5049721;27;105712;-67
2021/10/18 08:04:04;;;;;;;11.13;8.23;;;;;;;9.75;78.72;101012.59;5049638;27;106169;-65
2021/10/18 08:06:30;;;;;;;15.73;8.38;;;;;;;9.80;78.72;101017.47;5050142;27;106063;-64
2021/10/18 08:08:56;;;;;;;12.43;7.75;;;;;;;9.83;78.46;101023.34;5048311;27;106260;-69
2021/10/18 08:11:22;;;;;;;13.00;7.78;;;;;;;9.87;78.61;101026.56;5049170;27;105807;-64
2021/10/18 08:13:48;;;;;;;13.15;7.70;;;;;;;9.86;78.09;101026.72;5049140;27;105955;-63
2021/10/18 08:16:14;;;;;;;15.82;7.80;;;;;;;9.88;78.41;101030.06;5050208;27;105747;-63
2021/10/18 08:18:40;;;;;;;12.90;7.50;;;;;;;9.90;78.11;101028.09;5049724;27;106267;-65
2021/10/18 08:21:10;;;;;;;14.40;7.20;;;;;;;9.92;78.25;101020.81;5048806;27;106046;-64
2021/10/18 08:23:36;;;;;;;11.13;6.95;;;;;;;9.96;78.18;101028.38;5049239;27;105967;-63
2021/10/18 08:26:03;;;;;;;12.80;6.70;;;;;;;10.01;78.43;101029.75;5050013;27;105881;-64
2021/10/18 08:28:28;;;;;;;11.35;7.63;;;;;;;10.03;78.00;101031.25;5049304;27;106144;-64
2021/10/18 08:30:54;;;;;;;10.68;7.18;;;;;;;10.06;78.00;101031.00;5049054;27;105863;-67
2021/10/18 08:33:20;;;;;;;12.30;7.30;;;;;;;10.09;78.12;101033.34;5049086;27;106025;-65
2021/10/18 08:35:45;;;;;;;14.18;7.28;;;;;;;10.11;77.83;101033.19;5050249;27;106029;-64
2021/10/18 08:46:02;;;;;;;15.88;8.18;;;;;;;10.19;77.15;101048.44;5046568;27;105765;-63
2021/10/18 08:48:28;;;;;;;11.52;7.25;;;;;;;10.20;77.60;101044.78;5048939;27;106138;-67
2021/10/18 08:50:54;;;;;;;11.20;7.20;;;;;;;10.22;76.97;101050.81;5048642;27;106021;-65
2021/10/18 08:53:19;;;;;;;9.63;6.57;;;;;;;10.19;76.93;101051.94;5048468;27;105851;-64
2021/10/18 08:55:44;;;;;;;10.77;6.75;;;;;;;10.19;77.27;101053.78;5049430;27;105890;-65
2021/10/18 08:58:10;;;;;;;16.83;7.40;;;;;;;10.23;77.32;101060.50;5048816;27;106271;-67
2021/10/18 09:00:42;;;;;;;15.23;7.72;;;;;;;10.26;77.42;101062.84;5048410;27;106091;-65
2021/10/18 09:03:22;;;;;;;10.77;7.00;;;;;;;10.32;77.48;101067.59;5048216;27;106043;-66
2021/10/18 09:05:49;;;;;;;14.15;6.63;;;;;;;10.35;77.15;101064.66;5049200;27;105962;-64
2021/10/18 09:08:38;;;;;;;11.20;7.20;;;;;;;10.38;76.67;101066.19;5047863;27;106159;-65
2021/10/18 09:11:08;;;;;;;12.93;7.85;;;;;;;10.43;76.85;101066.56;5040120;27;106017;-66
2021/10/18 09:13:35;;;;;;;11.95;6.88;;;;;;;10.48;77.23;101070.50;5047134;27;106305;-66
2021/10/18 09:16:01;;;;;;;13.13;6.97;;;;;;;10.52;76.95;101064.88;5048229;27;106401;-63
2021/10/18 09:18:26;;;;;;;12.43;7.05;;;;;;;10.55;76.64;101060.09;5047749;27;105786;-63
2021/10/18 09:20:51;;;;;;;11.65;7.25;;;;;;;10.61;76.24;101064.81;5047513;27;105766;-65
2021/10/18 09:23:31;;;;;;;12.50;7.50;;;;;;;10.68;76.80;101065.06;5047799;27;105891;-64
2021/10/18 09:26:02;;;;;;;9.20;6.93;;;;;;;10.74;76.50;101064.44;5049042;27;105894;-64
2021/10/18 09:28:29;;;;;;;13.13;6.15;;;;;;;10.77;75.89;101061.50;5048333;27;106184;-64
2021/10/18 09:30:55;;;;;;;12.30;6.30;;;;;;;10.78;76.16;101052.50;5047572;27;107289;-63
2021/10/18 09:33:32;;;;;;;14.00;6.50;;;;;;;10.80;75.85;101060.38;5047881;27;105995;-64
2021/10/18 09:35:59;;;;;;;14.38;7.53;;;;;;;10.85;75.53;101066.06;5048586;27;105898;-65
2021/10/18 09:38:25;;;;;;;10.20;6.47;;;;;;;10.87;75.21;101063.25;5048104;27;106167;-70
2021/10/18 09:40:53;;;;;;;12.50;6.22;;;;;;;10.88;74.82;101068.44;5047576;27;106637;-65
2021/10/18 09:43:30;;;;;;;13.48;7.22;;;;;;;10.91;75.51;101067.31;5047668;27;105899;-68
2021/10/18 09:45:56;;;;;;;10.57;6.13;;;;;;;10.96;74.96;101073.00;5048832;27;105987;-69
2021/10/18 10:55:46;;;;;;;8.27;4.43;;;;;;;11.77;71.59;101072.03;5047426;27;106227;-63
2021/10/18 10:58:30;;;;;;;11.32;5.60;;;;;;;11.76;71.59;101075.69;5049920;27;106261;-67
2021/10/18 11:00:56;;;;;;;8.10;4.10;;;;;;;11.76;71.27;101081.03;5049755;27;106001;-66
2021/10/18 11:03:30;;;;;;;7.75;4.78;;;;;;;11.77;71.09;101081.84;5050415;27;105886;-68
2021/10/18 11:06:02;;;;;;;10.10;4.55;;;;;;;11.77;70.79;101076.50;5049834;27;106172;-70
2021/10/18 11:08:32;;;;;;;10.40;4.93;;;;;;;11.78;70.92;101076.38;5049259;27;106886;-65
2021/10/18 11:11:10;;;;;;;12.77;4.53;;;;;;;11.81;70.77;101078.72;5049078;27;106127;-64
2021/10/18 11:13:55;;;;;;;11.40;4.50;;;;;;;11.87;70.53;101076.44;5050353;27;106302;-65
2021/10/18 11:16:23;;;;;;;8.02;4.68;;;;;;;11.88;70.58;101067.41;5050081;27;106156;-65
2021/10/18 11:18:51;;;;;;;8.13;4.15;;;;;;;11.89;70.50;101066.44;5049620;27;106098;-65
2021/10/18 11:21:32;;;;;;;8.20;4.25;;;;;;;11.90;69.99;101065.44;5049623;27;106023;-70
2021/10/18 11:23:58;;;;;;;8.48;4.00;;;;;;;11.92;70.04;101064.28;5050359;27;105883;-65
2021/10/18 11:26:24;;;;;;;7.45;3.65;;;;;;;12.01;70.35;101066.06;5049865;27;106184;-64
2021/10/18 11:28:59;;;;;;;5.88;3.65;;;;;;;12.07;69.98;101066.38;5049521;27;106226;-63
2021/10/18 11:31:29;;;;;;;11.60;4.63;;;;;;;12.06;69.12;101059.41;5049519;27;106039;-74
2021/10/18 11:34:03;;;;;;;11.98;4.47;;;;;;;12.04;69.45;101066.72;5050651;27;105987;-73
2021/10/18 11:36:29;;;;;;;7.60;3.60;;;;;;;12.04;68.96;101051.50;5049824;27;106076;-67
2021/10/18 11:39:09;;;;;;;7.47;3.67;;;;;;;12.09;69.33;101065.22;5049808;27;106546;-64
2021/10/18 11:41:56;;;;;;;10.10;3.10;;;;;;;12.07;68.54;101061.91;5049572;27;105788;-70
2021/10/18 11:44:42;;;;;;;6.07;3.08;;;;;;;12.09;68.69;101049.22;5049272;27;105883;-68
2021/10/18 11:47:28;;;;;;;7.30;3.70;;;;;;;12.16;69.28;101044.06;5049160;27;106163;-68
2021/10/18 11:50:25;;;;;;;7.05;3.40;;;;;;;12.29;68.66;101046.31;5049254;27;105972;-65
2021/10/18 11:52:59;;;;;;;7.60;3.90;;;;;;;12.32;68.27;101038.81;5048818;27;105984;-66
2021/10/18 11:55:36;;;;;;;10.75;3.75;;;;;;;12.39;68.49;101030.97;5050267;27;107139;-64
2021/10/18 11:58:05;;;;;;;8.73;4.05;;;;;;;12.46;68.64;101032.00;5049301;27;106254;-64
2021/10/18 12:00:43;;;;;;;7.97;4.10;;;;;;;12.59;68.68;101028.88;5049304;27;106135;-65
2021/10/18 12:03:19;;;;;;;5.85;3.40;;;;;;;12.66;68.26;101032.56;5049157;27;106035;-63
2021/10/18 12:05:47;;;;;;;5.43;3.25;;;;;;;12.70;67.18;101036.59;5049890;27;105811;-63
2021/10/18 12:08:15;;;;;;;7.88;3.47;;;;;;;12.68;67.50;101032.41;5048606;27;106165;-63
2021/10/18 12:10:42;;;;;;;8.13;3.92;;;;;;;12.67;67.29;101030.72;5048612;27;105779;-68
2021/10/18 12:13:17;;;;;;;8.23;3.92;;;;;;;12.73;67.15;101035.44;5047806;27;106452;-63
2021/10/18 12:16:04;;;;;;;7.93;3.17;;;;;;;12.75;67.13;101038.75;5049289;27;106495;-63
2021/10/18 12:18:37;;;;;;;5.60;2.97;;;;;;;12.69;66.74;101031.41;5048612;27;106276;-70
2021/10/18 12:21:08;;;;;;;7.00;3.67;;;;;;;12.64;66.60;101028.38;5047747;27;105973;-69
2021/10/18 12:23:37;;;;;;;5.78;3.15;;;;;;;12.64;66.68;101025.72;5048577;27;106132;-66
2021/10/18 12:26:13;;;;;;;6.97;3.10;;;;;;;12.66;66.41;101034.41;5049658;27;106141;-63
2021/10/18 12:28:55;;;;;;;7.72;2.80;;;;;;;12.70;66.52;101025.06;5048760;27;106550;-63
2021/10/18 12:31:41;;;;;;;5.75;3.22;;;;;;;12.93;66.91;101032.44;5048391;27;106785;-68
2021/10/18 12:34:18;;;;;;;7.50;3.70;;;;;;;13.13;66.01;101035.66;5048529;27;106162;-63
2021/10/18 12:37:07;;;;;;;8.63;3.70;;;;;;;13.25;65.97;101030.81;5049102;27;106144;-70
2021/10/18 12:39:53;;;;;;;9.32;3.35;;;;;;;13.38;65.53;101036.50;5048948;27;105878;-70
2021/10/18 12:42:25;;;;;;;5.88;2.92;;;;;;;13.54;65.57;101033.00;5048381;27;106525;-65
2021/10/18 12:44:59;;;;;;;5.53;3.10;;;;;;;13.71;65.21;101036.50;5048009;27;106091;-70
2021/10/18 12:47:25;;;;;;;5.10;3.10;;;;;;;13.72;64.09;101035.47;5049407;27;106006;-64
2021/10/18 12:50:01;;;;;;;7.90;3.05;;;;;;;13.83;64.60;101034.28;5048235;27;106011;-63
2021/10/18 12:52:27;;;;;;;7.53;3.03;;;;;;;13.89;63.82;101030.94;5047939;27;105936;-67
2021/10/18 12:54:52;;;;;;;13.18;3.08;;;;;;;13.92;63.95;101029.75;5047584;27;106020;-65
2021/10/18 12:57:24;;;;;;;7.15;3.25;;;;;;;13.96;63.38;101039.94;5049260;27;105849;-67
2021/10/18 13:00:10;;;;;;;5.15;2.75;;;;;;;14.00;63.47;101035.09;5048529;27;105914;-66
2021/10/18 13:02:37;;;;;;;7.32;3.28;;;;;;;14.02;63.18;101025.03;5047573;27;106468;-71
2021/10/18 13:05:32;;;;;;;5.72;2.83;;;;;;;14.08;62.54;101026.16;5046756;27;106189;-71
2021/10/18 13:08:01;;;;;;;6.70;3.03;;;;;;;14.03;62.29;101032.88;5045541;27;106118;-69
2021/10/18 13:10:32;;;;;;;6.00;2.90;;;;;;;13.98;61.92;101029.91;5046457;27;106003;-67
2021/10/18 13:13:02;;;;;;;7.85;2.67;;;;;;;13.99;62.12;101025.38;5047263;27;106292;-69
2021/10/18 13:15:27;;;;;;;4.63;2.40;;;;;;;14.00;62.15;101024.38;5047671;27;105764;-74
2021/10/18 13:17:53;;;;;;;8.48;2.78;;;;;;;14.03;61.84;101026.69;5049014;27;105976;-71
2021/10/18 13:20:23;;;;;;;6.13;2.47;;;;;;;14.01;60.91;101034.06;5047421;27;105713;-68
2021/10/18 13:22:49;;;;;;;5.23;2.20;;;;;;;14.16;60.87;101026.13;5046801;27;106687;-72
2021/10/18 13:25:15;;;;;;;5.75;2.42;;;;;;;14.39;60.93;101029.75;5047545;27;105862;-72
2021/10/18 13:27:41;;;;;;;6.53;2.13;;;;;;;14.59;60.05;101017.75;5048683;27;105919;-65
2021/10/18 13:30:08;;;;;;;5.85;2.30;;;;;;;14.68;59.58;101019.38;5051552;27;106134;-64
2021/10/18 13:32:39;;;;;;;6.78;2.08;;;;;;;14.74;59.43;101031.28;5051379;27;105884;-67
2021/10/18 13:35:06;;;;;;;5.45;2.58;;;;;;;14.70;58.86;101023.56;5051502;27;105716;-66
2021/10/18 13:37:32;;;;;;;6.22;2.53;;;;;;;14.87;59.31;101029.66;5052149;27;106580;-64
2021/10/18 13:39:57;;;;;;;5.82;2.65;;;;;;;14.97;58.52;101031.28;5051897;27;105867;-66
2021/10/18 13:42:23;;;;;;;4.93;2.63;;;;;;;14.94;58.36;101029.78;5051153;27;106176;-69
2021/10/18 13:44:49;;;;;;;7.38;3.15;;;;;;;14.92;58.11;101029.13;5050876;27;105955;-66
2021/10/18 13:47:15;;;;;;;7.65;2.63;;;;;;;14.81;57.66;101027.69;5051714;27;105994;-68
2021/10/18 13:49:40;;;;;;;9.63;3.35;;;;;;;14.71;57.97;101019.03;5051582;27;106202;-64
2021/10/18 13:52:06;;;;;;;7.03;2.80;;;;;;;14.66;57.81;101026.78;5051207;27;105959;-66
2021/10/18 13:54:32;;;;;;;7.20;2.60;;;;;;;14.58;57.46;101019.56;5051271;27;106119;-64
2021/10/18 13:56:58;;;;;;;11.30;3.08;;;;;;;14.55;57.48;101020.75;5052004;27;105998;-70
2021/10/18 13:59:23;;;;;;;5.85;2.55;;;;;;;14.68;58.01;101022.91;5051695;27;106226;-72
2021/10/18 14:01:48;;;;;;;9.57;3.05;;;;;;;14.97;57.57;101033.97;5051244;27;106497;-70
2021/10/18 14:04:15;;;;;;;10.13;2.75;;;;;;;15.14;57.08;101024.75;5050832;27;106458;-67
2021/10/18 14:06:45;;;;;;;6.90;3.40;;;;;;;15.61;56.76;101038.13;5051403;27;106952;-66
2021/10/18 14:09:12;;;;;;;5.80;3.22;;;;;;;16.96;56.19;101034.31;5050925;27;106123;-72
2021/10/18 14:11:38;;;;;;;8.82;3.50;;;;;;;18.78;54.88;101020.94;5051357;27;105956;-71
2021/10/18 14:14:08;;;;;;;7.95;3.20;;;;;;;19.50;51.65;101018.53;5050686;27;106124;-69
2021/10/18 14:16:34;;;;;;;;;;;;;;;20.41;50.81;101016.84;5052102;27;106224;-68
2021/10/18 14:19:02;;;;;;;5.35;2.63;;;;;;;20.26;47.53;101017.13;5051013;27;106035;-69
2021/10/18 14:21:29;;;;;;;7.13;2.90;;;;;;;20.07;47.39;101023.44;5050640;27;106074;-70
2021/10/18 14:23:54;;;;;;;5.45;2.30;;;;;;;19.92;46.49;101021.81;5050585;27;105862;-68
2021/10/18 14:26:19;;;;;;;5.20;2.17;;;;;;;20.14;46.31;101024.25;5051934;27;106144;-66
2021/10/18 14:28:45;;;;;;;6.35;2.25;;;;;;;19.84;45.03;101024.75;5050496;27;105808;-70
2021/10/18 14:31:10;;;;;;;5.95;2.40;;;;;;;19.71;45.90;101030.13;5050472;27;105843;-66
2021/10/18 14:33:36;;;;;;;7.40;2.70;;;;;;;19.68;45.33;101027.84;5050293;27;106001;-64
2021/10/18 14:36:05;;;;;;;6.05;2.35;;;;;;;19.21;45.43;101025.19;5051448;27;105970;-65
2021/10/18 14:38:30;;;;;;;8.27;3.30;;;;;;;18.81;45.61;101025.09;5050589;27;106305;-66
2021/10/18 14:40:56;;;;;;;4.70;2.40;;;;;;;18.34;46.05;101033.03;5049507;27;106058;-66
2021/10/18 14:43:22;;;;;;;5.15;2.47;;;;;;;18.05;46.74;101026.91;5050575;27;106328;-65
2021/10/18 14:45:47;;;;;;;7.10;2.72;;;;;;;17.79;46.73;101031.06;5050946;27;106087;-67
2021/10/18 14:48:12;;;;;;;7.32;2.33;;;;;;;17.73;47.06;101035.38;5050478;27;107329;-68
2021/10/18 14:50:38;;;;;;;5.82;2.50;;;;;;;17.58;47.19;101031.97;5050359;27;106496;-68
2021/10/18 14:53:03;;;;;;;4.43;2.38;;;;;;;17.14;46.85;101023.13;5049924;27;114136;-71
2021/10/18 14:55:28;;;;;;;5.75;2.60;;;;;;;16.53;47.60;101013.56;5051085;27;106236;-69
2021/10/18 14:57:54;;;;;;;6.25;2.60;;;;;;;16.13;47.95;101017.59;5050744;27;106215;-66
2021/10/18 15:00:19;;;;;;;2.95;2.00;;;;;;;15.79;48.49;101022.50;5050202;27;109497;-66
2021/10/18 15:02:46;;;;;;;5.65;2.88;;;;;;;15.61;49.51;101024.69;5050387;27;106096;-64
2021/10/18 15:05:12;;;;;;;5.55;2.55;;;;;;;15.45;49.65;101021.16;5050749;27;105850;-66
2021/10/18 15:07:37;;;;;;;4.97;2.45;;;;;;;15.26;49.70;101016.31;5049724;27;105876;-68
2021/10/18 15:10:04;;;;;;;6.78;3.10;;;;;;;15.00;50.29;101026.38;5050099;27;106980;-68
2021/10/18 15:12:29;;;;;;;5.80;3.85;;;;;;;14.82;50.82;101026.69;5049908;27;105838;-65
2021/10/18 15:14:55;;;;;;;11.02;6.28;;;;;;;14.56;51.04;101016.25;5050874;27;105922;-65
2021/10/18 15:17:21;;;;;;;12.98;6.47;;;;;;;14.34;51.68;101028.59;5046782;27;106670;-70
2021/10/18 15:19:46;;;;;;;10.18;4.85;;;;;;;14.12;51.81;101025.66;5049342;27;106012;-69
2021/10/18 15:22:15;;;;;;;13.32;4.60;;;;;;;13.86;52.22;101025.94;5048958;27;106050;-68
2021/10/18 15:24:44;;;;;;;10.93;4.32;;;;;;;13.62;52.65;101029.47;5050499;27;105972;-69
2021/10/18 15:27:09;;;;;;;7.57;3.70;;;;;;;13.39;53.41;101024.81;5049815;27;106197;-69
2021/10/18 15:29:35;;;;;;;8.52;3.53;;;;;;;13.18;53.88;101026.13;5049094;27;106971;-68
2021/10/18 15:32:00;;;;;;;9.30;3.20;;;;;;;12.96;54.36;101029.47;5049235;27;106535;-69
2021/10/18 15:34:26;;;;;;;8.10;3.70;;;;;;;12.77;54.50;101022.56;5050002;27;106369;-68
2021/10/18 15:36:52;;;;;;;5.28;3.30;;;;;;;12.56;54.91;101015.00;5049552;27;105933;-70
2021/10/18 15:39:18;;;;;;;10.98;4.07;;;;;;;12.39;55.74;101022.97;5049330;27;106387;-69
2021/10/18 15:41:44;;;;;;;7.40;3.92;;;;;;;12.22;55.71;101024.75;5048588;27;106020;-69
2021/10/18 15:44:09;;;;;;;10.98;4.82;;;;;;;12.05;56.45;101031.84;5049791;27;106063;-69
2021/10/18 15:46:35;;;;;;;11.85;5.43;;;;;;;11.88;56.90;101035.38;5049227;27;106120;-69
2021/10/18 15:49:02;;;;;;;12.65;6.03;;;;;;;11.71;56.76;101040.63;5048644;27;106013;-71
2021/10/18 15:51:28;;;;;;;8.35;4.20;;;;;;;11.55;57.35;101035.16;5048278;27;106620;-71
2021/10/18 15:53:53;;;;;;;7.75;4.15;;;;;;;11.41;57.58;101040.06;5032929;27;105834;-71
2021/10/18 15:56:18;;;;;;;8.48;4.30;;;;;;;11.29;57.92;101036.81;5049503;27;106317;-71
2021/10/18 15:58:44;;;;;;;10.80;4.38;;;;;;;11.17;58.57;101038.06;5049000;27;105827;-68
2021/10/18 16:01:10;;;;;;;16.05;4.82;;;;;;;11.08;58.98;101039.78;5048753;27;105746;-67
2021/10/18 16:03:35;;;;;;;13.02;4.50;;;;;;;10.97;59.20;101038.19;5049771;27;105921;-67
2021/10/18 16:06:00;;;;;;;9.13;4.15;;;;;;;10.87;59.58;101031.25;5049143;27;106178;-69
2021/10/18 16:08:27;;;;;;;11.50;3.92;;;;;;;10.76;60.08;101030.50;5048529;27;106022;-71
2021/10/18 16:10:52;;;;;;;9.23;3.92;;;;;;;10.70;60.79;101023.09;5045306;27;106375;-72
2021/10/18 16:13:17;;;;;;;7.22;4.63;;;;;;;10.65;60.39;101025.41;5048598;27;106269;-65
2021/10/18 16:15:46;;;;;;;14.25;5.32;;;;;;;10.60;60.68;101031.16;5045764;27;106306;-65
2021/10/18 16:18:14;;;;;;;14.35;5.70;;;;;;;10.55;61.38;101029.94;5040241;27;106099;-67
2021/10/18 16:20:42;;;;;;;11.43;5.53;;;;;;;10.48;61.16;101030.53;5038263;27;106018;-68
2021/10/18 16:23:08;;;;;;;13.43;6.07;;;;;;;10.45;61.69;101032.66;5040967;27;106758;-66
2021/10/18 16:25:33;;;;;;;17.13;7.68;;;;;;;10.39;61.96;101034.09;5041852;27;106159;-71
2021/10/18 16:27:58;;;;;;;12.85;6.82;;;;;;;10.33;61.92;101037.28;5048149;27;106290;-70
2021/10/18 16:30:24;;;;;;;13.50;7.80;;;;;;;10.24;61.93;101041.69;5048282;27;105908;-68
2021/10/18 16:32:49;;;;;;;17.23;11.02;;;;;;;10.19;62.39;101032.47;5049348;27;105943;-71
2021/10/18 16:35:15;;;;;;;17.92;9.63;;;;;;;10.13;62.60;101040.06;5048302;27;106147;-64
2021/10/18 16:37:41;;;;;;;19.42;10.07;;;;;;;10.11;63.00;101038.53;5048206;27;107168;-65
2021/10/18 16:40:08;;;;;;;16.42;9.75;;;;;;;10.08;62.85;101044.97;5048076;27;105831;-73
2021/10/18 16:42:35;;;;;;;19.33;10.00;;;;;;;10.05;63.33;101049.78;5049100;27;105880;-65
2021/10/18 16:45:02;;;;;;;18.38;9.95;;;;;;;10.00;63.81;101039.53;5047943;27;106171;-65
2021/10/18 16:47:28;;;;;;;17.20;10.23;;;;;;;9.95;63.22;101047.97;5045248;27;106280;-66
2021/10/18 16:49:53;;;;;;;19.15;9.80;;;;;;;9.89;63.43;101043.22;5047579;27;106058;-64
2021/10/18 16:52:18;;;;;;;22.20;11.60;;;;;;;9.85;63.94;101038.34;5048845;27;106058;-65
2021/10/18 16:54:44;;;;;;;22.33;11.38;;;;;;;9.80;64.17;101034.28;5047284;27;106252;-72
2021/10/18 16:57:09;;;;;;;24.67;13.98;;;;;;;9.76;64.47;101037.38;5047693;27;106478;-67
2021/10/18 16:59:34;;;;;;;25.55;15.82;;;;;;;9.70;64.63;101038.78;5047926;27;106144;-68
2021/10/18 17:02:00;;;;;;;28.23;16.65;;;;;;;9.64;64.68;101045.53;5048088;27;106108;-69
2021/10/18 17:04:25;;;;;;;37.78;17.63;;;;;;;9.59;65.05;101049.59;5047900;27;106057;-72
2021/10/18 17:06:51;;;;;;;42.28;20.75;;;;;;;9.53;65.23;101044.84;5047248;27;106378;-73
2021/10/18 17:09:20;;;;;;;30.02;16.73;;;;;;;9.48;65.15;101050.59;5047137;27;106089;-67
2021/10/18 17:11:47;;;;;;;33.13;17.55;;;;;;;9.41;65.05;101052.97;5048144;27;106559;-68
2021/10/18 17:14:13;;;;;;;24.83;14.57;;;;;;;9.36;65.93;101051.72;5047497;27;106281;-65
2021/10/18 17:16:40;;;;;;;31.60;16.88;;;;;;;9.35;66.35;101058.88;5047479;27;106121;-69
2021/10/18 17:19:06;;;;;;;34.05;16.10;;;;;;;9.34;66.37;101067.81;5045937;27;107114;-66
2021/10/18 17:21:34;;;;;;;26.77;15.23;;;;;;;9.32;66.20;101061.78;5048617;27;105930;-66
2021/10/18 17:23:59;;;;;;;26.65;15.38;;;;;;;9.27;66.57;101062.22;5048008;27;106159;-65
2021/10/18 17:26:25;;;;;;;33.40;17.13;;;;;;;9.25;66.86;101063.34;5047453;27;105787;-70
2021/10/18 17:28:51;;;;;;;28.15;15.50;;;;;;;9.20;66.90;101062.91;5047608;27;106056;-71
2021/10/18 17:31:18;;;;;;;29.83;15.88;;;;;;;9.12;66.58;101061.81;5048151;27;105904;-73
